Terminal Aerodrome Forecast
Issued by NWS

Home | Current Version | Previous Version | Text Only | Print | Product List | Glossary On
Versions: 1 2 3 4 5 6 7 8 9 10 11 12
000
FTUS43 KJKL 242328
TAFSME
TAF
KSME 242328Z 2500/2524 VRB03KT P6SM BKN100
     FM250500 VRB03KT P6SM VCSH SCT040 OVC060
     FM250900 VRB03KT 5SM -RA OVC040
     FM251300 VRB05KT 2SM RA VCTS BKN007 OVC020CB
     FM251600 17008KT P6SM VCTS SCT020 BKN030CB=

USA.gov is the U.S. government's official web portal to all federal, state and local government web resources and services.